Time;durP1;ratioP1;P1;durP2;ratioP2;P2;SDS_P1;SDS_P2;PMS_P1;PMS_P2;Temp;Humidity;BMP_temperature;BMP_pressure;BME280_temperature;BME280_humidity;BME280_pressure;Samples;Min_cycle;Max_cycle;Signal;HPM_P1;HPM_P2
2022/05/28 00:00:05;;;;;;;16.23;8.65;;;;;;;15.79;80.11;97344.06;10374674;28;20484;-68
2022/05/28 00:05:05;;;;;;;14.25;9.55;;;;;;;15.77;80.78;97357.16;10371547;28;20064;-68
2022/05/28 00:10:04;;;;;;;15.13;8.65;;;;;;;15.77;81.21;97372.00;10374192;28;20079;-68
2022/05/28 00:15:05;;;;;;;15.40;8.70;;;;;;;15.78;81.05;97371.94;10372905;28;20075;-68
2022/05/28 00:20:06;;;;;;;14.40;8.70;;;;;;;15.79;81.03;97372.84;10365838;28;20080;-68
2022/05/28 00:25:07;;;;;;;14.18;8.93;;;;;;;15.66;80.85;97346.97;10373895;28;20515;-68
2022/05/28 00:30:09;;;;;;;14.35;8.40;;;;;;;15.77;81.04;97372.00;10370131;28;20127;-68
2022/05/28 00:35:12;;;;;;;15.77;9.00;;;;;;;15.69;81.58;97348.66;10372946;28;20563;-68
2022/05/28 00:40:24;;;;;;;13.55;7.35;;;;;;;15.60;81.79;97339.31;10345027;28;20072;-68
2022/05/28 00:45:23;;;;;;;12.10;7.63;;;;;;;15.60;82.42;97347.16;10372770;28;20087;-68
2022/05/28 00:50:22;;;;;;;;;;;;;;;15.56;82.31;97322.00;10371117;28;20396;-68
2022/05/28 00:55:22;;;;;;;10.45;6.82;;;;;;;15.48;82.65;97334.41;10371730;28;19946;-68
2022/05/28 01:00:22;;;;;;;14.68;8.25;;;;;;;15.44;83.49;97341.50;10378716;28;20061;-68
2022/05/28 01:05:36;;;;;;;23.40;9.57;;;;;;;15.23;83.99;97339.47;10378140;28;20063;-68
2022/05/28 01:11:02;;;;;;;17.20;10.07;;;;;;;15.04;84.62;97339.94;10381422;28;20061;-68
2022/05/28 01:16:11;;;;;;;16.48;11.00;;;;;;;14.89;84.58;97318.56;10361158;28;20061;-68
2022/05/28 01:21:37;;;;;;;18.00;11.10;;;;;;;15.06;84.74;97342.50;10339576;28;20095;-68
2022/05/28 01:27:07;;;;;;;17.08;9.43;;;;;;;15.07;85.06;97345.97;10358913;28;20087;-68
2022/05/28 01:32:07;;;;;;;18.13;11.00;;;;;;;14.95;85.29;97327.09;10380074;28;20072;-68
2022/05/28 01:37:07;;;;;;;14.65;11.68;;;;;;;15.06;84.98;97331.19;10361196;28;20532;-68
2022/05/28 01:42:09;;;;;;;17.85;11.73;;;;;;;15.18;85.25;97352.66;10338480;28;20057;-68
2022/05/28 01:47:10;;;;;;;19.08;13.40;;;;;;;15.25;85.15;97397.78;10375663;28;20067;-68
2022/05/28 01:52:11;;;;;;;14.13;6.15;;;;;;;14.40;87.48;97440.63;10380190;28;20068;-68
2022/05/28 01:57:12;;;;;;;10.70;6.70;;;;;;;14.56;86.68;97475.97;10376546;28;20455;-67
2022/05/28 02:02:13;;;;;;;11.70;6.68;;;;;;;14.70;87.16;97454.81;10323769;28;20448;-68
2022/05/28 02:07:12;;;;;;;12.13;6.03;;;;;;;14.91;87.01;97463.91;10364485;28;20503;-68
2022/05/28 02:12:30;;;;;;;18.35;7.88;;;;;;;15.16;88.94;97521.72;10347699;28;20478;-69
2022/05/28 02:17:50;;;;;;;21.15;9.65;;;;;;;15.22;90.96;97503.28;10336174;28;20491;-66
2022/05/28 02:23:03;;;;;;;23.05;9.88;;;;;;;15.05;92.72;97455.75;10334986;28;20060;-65
2022/05/28 02:28:05;;;;;;;20.42;9.45;;;;;;;15.06;94.64;97475.78;10334455;28;20072;-66
2022/05/28 02:33:06;;;;;;;18.38;9.40;;;;;;;15.11;95.93;97466.06;10334595;28;20556;-67
2022/05/28 02:38:05;;;;;;;17.48;9.52;;;;;;;15.07;96.39;97417.38;10334239;28;20057;-68
2022/05/28 02:43:04;;;;;;;;;;;;;;;15.25;97.40;97408.25;10334139;28;20039;-68
2022/05/28 02:48:03;;;;;;;17.70;9.98;;;;;;;15.28;97.65;97409.91;10333675;28;20362;-68
2022/05/28 02:53:02;;;;;;;20.27;11.30;;;;;;;15.30;98.54;97415.97;10332865;28;20481;-68
2022/05/28 02:58:01;;;;;;;;;;;;;;;15.36;99.22;97436.72;10333466;28;20404;-69
2022/05/28 03:03:00;;;;;;;17.67;10.10;;;;;;;15.45;99.14;97465.25;10332121;28;19913;-68
2022/05/28 03:07:58;;;;;;;;;;;;;;;15.57;99.20;97470.16;10333168;28;20026;-69
2022/05/28 03:12:58;;;;;;;24.85;10.80;;;;;;;15.51;99.49;97438.09;10333256;28;19909;-68
2022/05/28 03:17:59;;;;;;;19.95;10.68;;;;;;;15.61;99.78;97427.34;10331387;28;20068;-68
2022/05/28 03:22:58;;;;;;;20.00;9.73;;;;;;;15.70;100.00;97451.53;10331952;28;20064;-68
2022/05/28 03:27:57;;;;;;;;;;;;;;;15.81;100.00;97458.25;10332855;28;20057;-68
2022/05/28 03:32:56;;;;;;;20.60;10.40;;;;;;;15.87;99.79;97462.44;10330576;28;19916;-68
2022/05/28 03:37:55;;;;;;;;;;;;;;;15.99;100.00;97467.34;10330624;28;20053;-69
2022/05/28 03:42:54;;;;;;;20.98;10.82;;;;;;;16.05;99.75;97451.47;10332246;28;20498;-69
2022/05/28 03:47:53;;;;;;;;;;;;;;;16.04;99.85;97447.16;10331399;28;20590;-70
2022/05/28 03:52:52;;;;;;;19.23;11.18;;;;;;;16.14;100.00;97446.88;10331389;28;19959;-69
2022/05/28 03:57:51;;;;;;;;;;;;;;;16.17;99.85;97439.81;10330679;28;20029;-69
2022/05/28 04:02:50;;;;;;;17.75;10.00;;;;;;;16.15;99.84;97436.38;10331021;28;20431;-70
2022/05/28 04:07:49;;;;;;;;;;;;;;;16.17;99.99;97465.13;10331445;28;20013;-69
2022/05/28 04:12:48;;;;;;;16.25;10.05;;;;;;;15.79;100.00;97470.50;10331043;28;20368;-69
2022/05/28 04:17:47;;;;;;;;;;;;;;;15.76;100.00;97482.75;10330662;28;20570;-70
2022/05/28 04:22:46;;;;;;;20.08;8.75;;;;;;;15.68;100.00;97502.13;10330361;28;19909;-69
2022/05/28 04:27:44;;;;;;;;;;;;;;;15.70;100.00;97507.34;10330508;28;20458;-69
2022/05/28 04:32:43;;;;;;;14.77;6.82;;;;;;;15.82;100.00;97491.34;10329583;28;19953;-69
2022/05/28 04:37:42;;;;;;;;;;;;;;;16.04;99.91;97486.41;10329964;28;20025;-69
2022/05/28 04:42:41;;;;;;;15.07;8.30;;;;;;;16.28;99.66;97476.16;10330326;28;19909;-69
2022/05/28 04:47:40;;;;;;;;;;;;;;;16.52;99.27;97493.78;10329650;28;20084;-69
2022/05/28 04:52:39;;;;;;;18.00;9.73;;;;;;;16.70;98.98;97492.38;10329448;28;19959;-68
2022/05/28 04:57:38;;;;;;;;;;;;;;;16.75;98.40;97501.84;10330462;28;20042;-67
2022/05/28 05:02:37;;;;;;;18.67;9.33;;;;;;;16.91;98.16;97504.03;10329829;28;20387;-67
2022/05/28 05:07:36;;;;;;;18.65;9.93;;;;;;;16.95;97.96;97510.00;10326952;28;20069;-67
2022/05/28 05:12:36;;;;;;;14.15;8.43;;;;;;;17.04;97.70;97495.78;10328676;28;20520;-67
2022/05/28 05:17:34;;;;;;;18.15;9.88;;;;;;;16.97;97.23;97465.41;10328210;28;20133;-67
2022/05/28 05:22:33;;;;;;;15.85;9.32;;;;;;;16.79;97.28;97443.22;10329072;28;20037;-67
2022/05/28 05:27:32;;;;;;;;;;;;;;;16.54;98.40;97454.44;10330257;28;20083;-66
2022/05/28 05:32:31;;;;;;;15.70;9.83;;;;;;;16.47;98.83;97456.38;10328710;28;19996;-67
2022/05/28 05:37:30;;;;;;;20.35;10.70;;;;;;;16.40;98.76;97444.38;10328718;28;20068;-67
2022/05/28 05:42:30;;;;;;;18.08;9.32;;;;;;;16.49;98.54;97441.50;10329029;28;20091;-67
2022/05/28 05:47:29;;;;;;;17.25;10.73;;;;;;;16.71;98.53;97453.94;10333521;28;20068;-67
2022/05/28 05:52:28;;;;;;;16.23;9.90;;;;;;;16.81;98.51;97425.72;10335629;28;20515;-67
2022/05/28 05:57:27;;;;;;;16.65;9.57;;;;;;;17.02;98.43;97413.69;10335814;28;20087;-67
2022/05/28 06:02:26;;;;;;;16.58;11.50;;;;;;;16.99;97.78;97388.44;10334480;28;20393;-67
2022/05/28 06:07:26;;;;;;;19.95;9.73;;;;;;;16.81;98.54;97410.00;10334221;28;20068;-66
2022/05/28 06:12:25;;;;;;;16.92;11.05;;;;;;;16.47;99.43;97372.56;10334307;28;20073;-67
2022/05/28 06:17:24;;;;;;;36.28;12.57;;;;;;;16.70;98.80;97376.25;10330139;28;20069;-67
2022/05/28 06:22:23;;;;;;;14.98;10.38;;;;;;;16.56;98.47;97326.03;10293799;28;20049;-67
2022/05/28 06:27:22;;;;;;;;;;;;;;;16.80;98.86;97380.28;10294298;28;20026;-68
2022/05/28 06:32:21;;;;;;;14.80;8.27;;;;;;;16.92;98.71;97358.09;10293055;28;19909;-67
2022/05/28 06:37:19;;;;;;;;;;;;;;;17.20;98.02;97355.41;10310651;28;20045;-65
2022/05/28 06:42:18;;;;;;;17.77;7.43;;;;;;;17.44;96.07;97351.06;10334359;28;19909;-66
2022/05/28 06:47:17;;;;;;;20.20;8.18;;;;;;;17.13;95.38;97223.66;10333663;28;20092;-67
2022/05/28 06:52:16;;;;;;;15.70;8.10;;;;;;;18.12;94.90;97319.78;10332561;28;20076;-66
2022/05/28 06:57:15;;;;;;;15.43;7.43;;;;;;;18.51;93.59;97306.00;10333370;28;20108;-66
2022/05/28 07:02:14;;;;;;;15.23;7.75;;;;;;;18.75;91.35;97307.66;10331958;28;20044;-67
2022/05/28 07:07:14;;;;;;;11.57;7.13;;;;;;;18.89;90.17;97298.34;10332490;28;20022;-67
2022/05/28 07:12:13;;;;;;;14.95;6.70;;;;;;;19.16;89.09;97288.47;10331611;28;20455;-67
2022/05/28 07:17:12;;;;;;;12.75;6.05;;;;;;;19.20;87.31;97268.97;10332954;28;20077;-67
2022/05/28 07:22:11;;;;;;;13.60;7.28;;;;;;;19.26;87.03;97265.22;10333394;28;20029;-67
2022/05/28 07:27:12;;;;;;;12.43;6.05;;;;;;;19.44;83.99;97299.47;10333030;28;20022;-67
2022/05/28 07:32:11;;;;;;;17.33;5.82;;;;;;;19.54;83.70;97263.06;10332787;28;20491;-67
2022/05/28 07:37:10;;;;;;;14.40;5.63;;;;;;;19.61;82.27;97258.44;10333107;28;20033;-67
2022/05/28 07:42:10;;;;;;;14.45;5.70;;;;;;;20.21;82.33;97280.22;10332522;28;20056;-66
2022/05/28 07:47:09;;;;;;;11.27;5.05;;;;;;;20.44;79.83;97268.59;10332453;28;20064;-67
2022/05/28 07:52:08;;;;;;;14.05;6.43;;;;;;;20.79;79.23;97262.50;10331854;28;20049;-67
2022/05/28 07:57:06;;;;;;;12.18;5.30;;;;;;;21.11;76.95;97269.66;10331854;28;20072;-67
2022/05/28 08:02:06;;;;;;;13.65;5.90;;;;;;;21.61;77.42;97267.97;10331845;28;20108;-67
2022/05/28 08:07:05;;;;;;;12.15;5.47;;;;;;;21.83;72.76;97262.41;10331136;28;20057;-68
2022/05/28 08:12:04;;;;;;;14.82;5.07;;;;;;;22.18;72.85;97260.50;10346515;28;20134;-66
2022/05/28 08:17:04;;;;;;;12.07;5.50;;;;;;;22.51;70.94;97267.47;10330864;28;20065;-68
2022/05/28 08:27:21;;;;;;;11.13;5.55;;;;;;;23.01;68.82;97258.38;10330775;28;20065;-67
2022/05/28 08:32:20;;;;;;;13.50;5.53;;;;;;;23.36;68.26;97249.28;10330852;28;20068;-67
2022/05/28 08:37:19;;;;;;;9.50;4.47;;;;;;;23.68;64.84;97227.94;10330352;28;20026;-66
2022/05/28 08:42:24;;;;;;;12.80;5.13;;;;;;;23.84;67.90;97223.38;10331040;28;20491;-67
2022/05/28 08:47:33;;;;;;;11.43;5.55;;;;;;;24.25;67.02;97217.25;10330724;28;20465;-67
2022/05/28 08:52:43;;;;;;;13.20;5.63;;;;;;;24.53;65.52;97202.19;10330310;28;20065;-67
2022/05/28 08:58:00;;;;;;;12.05;5.10;;;;;;;24.73;65.25;97207.03;10330711;28;20076;-67
2022/05/28 09:03:14;;;;;;;12.60;5.65;;;;;;;24.64;65.56;97205.00;10329936;28;20084;-67
2022/05/28 09:08:19;;;;;;;14.52;5.90;;;;;;;24.40;65.34;97205.66;10329051;28;20073;-67
2022/05/28 09:13:29;;;;;;;13.73;5.53;;;;;;;24.32;65.38;97196.50;10329002;28;20069;-67
2022/05/28 09:18:36;;;;;;;15.05;5.97;;;;;;;24.42;65.05;97179.88;10328834;28;20073;-68
2022/05/28 09:23:44;;;;;;;13.80;6.53;;;;;;;24.75;63.67;97183.88;10337577;28;20519;-68
2022/05/28 09:29:08;;;;;;;9.98;4.60;;;;;;;24.71;59.51;97163.84;10337526;28;20493;-68
2022/05/28 09:34:36;;;;;;;12.90;4.95;;;;;;;25.18;59.07;97159.75;10337306;28;20057;-68
2022/05/28 09:39:48;;;;;;;10.77;4.97;;;;;;;25.71;52.26;97178.19;10337046;28;20069;-68
2022/05/28 09:44:53;;;;;;;10.60;4.57;;;;;;;26.02;51.60;97176.81;10337619;28;20499;-68
2022/05/28 09:49:54;;;;;;;14.07;4.57;;;;;;;26.23;49.88;97150.50;10336826;28;20394;-68
2022/05/28 09:55:18;;;;;;;14.93;5.47;;;;;;;26.40;54.29;97159.88;10336654;28;20483;-68
2022/05/28 10:00:21;;;;;;;11.50;5.15;;;;;;;26.25;55.49;97129.09;10334936;28;20122;-68
2022/05/28 10:05:21;;;;;;;11.10;5.13;;;;;;;26.49;53.03;97153.88;10336362;28;20515;-68
2022/05/28 10:10:26;;;;;;;11.73;5.30;;;;;;;26.78;51.57;97142.81;10336150;28;20061;-67
2022/05/28 10:15:31;;;;;;;13.07;5.55;;;;;;;27.35;53.03;97135.75;10334398;28;20149;-68
2022/05/28 10:20:30;;;;;;;8.10;4.47;;;;;;;27.69;48.95;97135.78;10335481;28;20073;-68
2022/05/28 10:25:41;;;;;;;10.00;5.13;;;;;;;27.51;46.74;97114.09;10335240;28;20072;-68
2022/05/28 10:30:42;;;;;;;12.88;5.15;;;;;;;27.71;47.02;97129.34;10334489;28;20445;-68
2022/05/28 10:35:42;;;;;;;9.52;4.65;;;;;;;27.61;45.32;97129.25;10336049;28;20064;-68
2022/05/28 10:40:59;;;;;;;13.32;4.55;;;;;;;27.88;45.27;97116.47;10334713;28;20133;-68
2022/05/28 10:46:00;;;;;;;14.68;5.95;;;;;;;27.92;44.29;97112.59;10334675;28;20064;-69
2022/05/28 10:51:13;;;;;;;10.23;4.80;;;;;;;27.89;42.90;97075.47;10334752;28;20057;-68
2022/05/28 10:56:44;;;;;;;9.75;4.80;;;;;;;28.00;43.25;97096.78;10333261;28;20468;-69
2022/05/28 11:01:55;;;;;;;15.68;5.13;;;;;;;28.50;44.89;97102.44;10334504;28;20068;-69
2022/05/28 11:07:48;;;;;;;10.40;5.03;;;;;;;28.95;43.11;97101.34;10332201;28;20065;-69
2022/05/28 11:13:12;;;;;;;13.45;4.78;;;;;;;28.79;43.28;97096.47;10309469;28;20092;-69
2022/05/28 11:18:35;;;;;;;13.27;4.80;;;;;;;28.85;42.61;97094.13;10292722;28;20113;-69
2022/05/28 11:23:56;;;;;;;11.15;5.07;;;;;;;28.79;42.06;97077.78;10322695;28;20065;-69
2022/05/28 11:29:11;;;;;;;9.68;4.82;;;;;;;29.09;40.48;97077.78;10332060;28;20076;-69
2022/05/28 11:34:19;;;;;;;9.82;5.07;;;;;;;29.00;40.13;97067.06;10333188;28;20065;-69
2022/05/28 11:39:47;;;;;;;13.67;9.67;;;;;;;28.81;41.67;97046.47;10332418;28;20069;-68
2022/05/28 11:44:54;;;;;;;15.75;7.00;;;;;;;28.95;41.56;97054.09;10304098;28;20069;-69
2022/05/28 11:55:41;;;;;;;12.77;8.10;;;;;;;28.79;41.24;97053.75;10292370;28;20073;-69
2022/05/28 12:00:41;;;;;;;11.57;4.70;;;;;;;28.56;42.39;97045.84;10291044;28;20535;-68
2022/05/28 12:05:46;;;;;;;11.65;6.90;;;;;;;28.38;42.47;97037.56;10291038;28;20073;-69
2022/05/28 12:10:48;;;;;;;18.73;8.50;;;;;;;28.43;42.17;97031.84;10292334;28;20061;-69
2022/05/28 12:15:47;;;;;;;15.60;7.03;;;;;;;28.18;42.64;96939.72;10294234;28;20489;-69
2022/05/28 12:20:53;;;;;;;12.70;5.07;;;;;;;28.99;41.55;97027.97;10299805;28;20495;-68
2022/05/28 12:25:53;;;;;;;17.88;7.63;;;;;;;29.04;41.02;97009.69;10334574;28;20088;-69
2022/05/28 12:30:54;;;;;;;9.15;4.10;;;;;;;29.18;40.49;97032.53;10325002;28;20026;-69
2022/05/28 12:36:43;;;;;;;13.35;4.88;;;;;;;29.27;41.69;97024.59;10293807;28;20066;-69
2022/05/28 12:42:00;;;;;;;14.52;5.30;;;;;;;29.33;42.00;97036.56;10306481;28;20072;-69
2022/05/28 12:47:00;;;;;;;13.55;5.82;;;;;;;29.63;43.26;97032.97;10334039;28;20423;-69
2022/05/28 12:52:31;;;;;;;18.23;5.57;;;;;;;29.62;42.33;97027.75;10332900;28;20130;-69
2022/05/28 12:57:34;;;;;;;15.63;5.95;;;;;;;29.22;41.77;97033.97;10340847;28;20064;-69
2022/05/28 13:02:44;;;;;;;12.75;6.03;;;;;;;28.73;42.05;97035.56;10342280;28;20048;-69
2022/05/28 13:07:52;;;;;;;12.18;5.07;;;;;;;28.17;43.09;97020.72;10341930;28;20048;-69
2022/05/28 13:13:10;;;;;;;14.43;5.68;;;;;;;27.72;42.45;97037.72;10338825;28;20069;-69
2022/05/28 13:18:43;;;;;;;13.48;5.00;;;;;;;27.22;43.24;97033.84;10337608;28;20092;-69
2022/05/28 13:23:50;;;;;;;25.70;18.60;;;;;;;26.78;44.67;97025.69;10323258;28;20666;-69
2022/05/28 13:29:11;;;;;;;14.57;6.97;;;;;;;26.51;47.58;97048.16;10337552;28;20068;-69
2022/05/28 13:34:30;;;;;;;17.02;7.63;;;;;;;25.86;55.78;97041.53;10337424;28;20732;-69
2022/05/28 13:39:31;;;;;;;20.83;10.30;;;;;;;25.18;59.45;97042.06;10335856;28;20084;-68
2022/05/28 13:44:31;;;;;;;18.70;10.80;;;;;;;24.57;62.39;97042.72;10337290;28;20068;-69
2022/05/28 13:49:32;;;;;;;13.82;7.65;;;;;;;24.01;65.14;97023.53;10336940;28;20057;-68
2022/05/28 13:54:31;;;;;;;14.27;7.40;;;;;;;23.72;66.60;97039.56;10335082;28;20127;-68
2022/05/28 13:59:46;;;;;;;13.38;6.82;;;;;;;23.33;67.37;97048.28;10334878;28;20072;-68
2022/05/28 14:04:47;;;;;;;14.73;7.43;;;;;;;23.02;67.74;97056.34;10336130;28;20064;-69
2022/05/28 14:09:46;;;;;;;11.52;6.72;;;;;;;22.67;67.99;97047.03;10334563;28;20532;-69
2022/05/28 14:14:46;;;;;;;10.55;6.97;;;;;;;22.61;68.55;97064.16;10336331;28;20488;-69
2022/05/28 14:19:50;;;;;;;13.98;6.80;;;;;;;22.51;67.80;97071.78;10335246;28;20073;-69
2022/05/28 14:24:54;;;;;;;15.13;7.00;;;;;;;22.26;68.01;97066.25;10336048;28;20080;-69
2022/05/28 14:29:54;;;;;;;15.13;8.07;;;;;;;21.51;68.69;96950.81;10335635;28;20472;-69
2022/05/28 14:34:54;;;;;;;14.30;9.10;;;;;;;21.92;69.29;97047.94;10336181;28;20076;-69
2022/05/28 14:39:54;;;;;;;15.63;8.20;;;;;;;21.90;70.08;97052.44;10334984;28;20069;-69
2022/05/28 14:44:53;;;;;;;14.32;8.23;;;;;;;21.73;71.22;97063.09;10335051;28;20167;-69
2022/05/28 14:49:55;;;;;;;14.60;8.75;;;;;;;21.62;71.88;97091.94;10334433;28;20065;-68
2022/05/28 14:54:57;;;;;;;17.40;8.82;;;;;;;21.44;73.37;97099.94;10333959;28;20467;-68
2022/05/28 14:59:58;;;;;;;16.20;9.27;;;;;;;21.28;75.21;97099.06;10332770;28;20077;-68
2022/05/28 15:05:12;;;;;;;16.88;9.02;;;;;;;21.16;76.23;97095.28;10333991;28;20092;-68
2022/05/28 15:10:42;;;;;;;12.10;8.82;;;;;;;20.99;77.19;97076.88;10332950;28;20068;-68
2022/05/28 15:15:42;;;;;;;15.20;7.93;;;;;;;20.65;76.67;97029.41;10330919;28;20080;-68
2022/05/28 15:20:42;;;;;;;12.52;7.97;;;;;;;20.72;77.16;97045.75;10332713;28;20076;-68
2022/05/28 15:25:41;;;;;;;15.45;7.85;;;;;;;20.66;75.97;97017.94;10332306;28;20515;-68
2022/05/28 15:30:40;;;;;;;11.80;6.30;;;;;;;20.82;73.21;96986.34;10333478;28;20072;-69
2022/05/28 15:41:06;;;;;;;15.63;6.53;;;;;;;21.20;70.36;97008.91;10332412;28;20136;-69
2022/05/28 15:46:06;;;;;;;13.68;7.18;;;;;;;21.85;69.79;97014.88;10331623;28;20076;-69
2022/05/28 15:51:05;;;;;;;10.77;6.60;;;;;;;22.10;68.01;97008.16;10332060;28;20063;-69
2022/05/28 15:56:09;;;;;;;17.60;6.55;;;;;;;22.56;64.61;96976.31;10330354;28;20067;-69
2022/05/28 16:01:15;;;;;;;17.55;8.43;;;;;;;22.74;63.45;96977.84;10331880;28;20519;-69
2022/05/28 16:06:14;;;;;;;14.65;7.72;;;;;;;22.81;65.28;96996.81;10331906;28;20056;-69
2022/05/28 16:11:24;;;;;;;11.73;6.57;;;;;;;22.76;65.86;97007.72;10331654;28;20060;-68
2022/05/28 16:16:24;;;;;;;13.85;7.38;;;;;;;22.52;65.46;97010.00;10331636;28;20103;-68
2022/05/28 16:21:24;;;;;;;15.95;7.10;;;;;;;22.40;66.07;97002.84;10331461;28;20175;-69
2022/05/28 16:26:29;;;;;;;17.35;7.72;;;;;;;22.23;65.65;97006.50;10331206;28;20503;-69
2022/05/28 16:31:28;;;;;;;14.15;7.45;;;;;;;22.15;66.56;97012.22;10330391;28;20464;-70
2022/05/28 16:36:29;;;;;;;11.68;7.00;;;;;;;22.00;66.11;96996.47;10330968;28;20076;-70
2022/05/28 16:41:29;;;;;;;19.05;7.25;;;;;;;22.06;65.97;97006.66;10330946;28;20474;-70
2022/05/28 16:46:28;;;;;;;14.20;6.80;;;;;;;21.92;66.04;97008.31;10331151;28;20071;-70
2022/05/28 16:51:28;;;;;;;14.90;7.65;;;;;;;21.92;66.08;97004.78;10330812;28;20025;-70
2022/05/28 16:56:37;;;;;;;15.68;7.00;;;;;;;21.94;65.50;96987.94;10331060;28;20507;-70
2022/05/28 17:01:36;;;;;;;18.02;7.45;;;;;;;21.86;66.14;96990.16;10330488;28;20072;-70
2022/05/28 17:06:35;;;;;;;15.85;7.43;;;;;;;21.89;64.96;97015.53;10307117;28;20076;-70
2022/05/28 17:11:35;;;;;;;15.25;6.22;;;;;;;21.04;67.89;97033.47;10291685;28;20022;-69
2022/05/28 17:16:35;;;;;;;13.07;5.03;;;;;;;20.44;68.57;97020.00;10292943;28;20037;-69
2022/05/28 17:21:36;;;;;;;14.15;5.97;;;;;;;20.41;69.89;97054.44;10293775;28;20159;-70
2022/05/28 17:26:35;;;;;;;16.42;6.00;;;;;;;20.53;70.58;97097.75;10291243;28;20046;-70
2022/05/28 17:31:35;;;;;;;13.25;5.22;;;;;;;20.28;71.11;97084.03;10292786;28;20469;-70
2022/05/28 17:36:35;;;;;;;9.80;5.63;;;;;;;20.26;71.37;97104.31;10291262;28;20505;-70
2022/05/28 17:41:34;;;;;;;15.18;5.40;;;;;;;20.29;71.36;97124.38;10295727;28;20073;-70
2022/05/28 17:46:35;;;;;;;11.68;5.72;;;;;;;20.22;71.10;97133.53;10300297;28;20781;-70
2022/05/28 17:51:35;;;;;;;16.30;6.40;;;;;;;20.07;71.00;97136.00;10299765;28;20022;-70
2022/05/28 17:56:35;;;;;;;12.02;4.82;;;;;;;20.04;70.15;97124.75;10307780;28;20083;-70
2022/05/28 18:01:43;;;;;;;10.88;5.22;;;;;;;19.99;69.65;97129.38;10340030;28;20064;-70
2022/05/28 18:06:42;;;;;;;14.95;6.05;;;;;;;19.84;69.44;97139.75;10339860;28;20036;-69
2022/05/28 18:11:41;;;;;;;15.00;6.50;;;;;;;19.57;71.27;97154.22;10337944;28;20161;-70
2022/05/28 18:16:44;;;;;;;14.20;6.95;;;;;;;19.36;73.66;97180.56;10336206;28;20353;-70
2022/05/28 18:21:44;;;;;;;13.15;6.30;;;;;;;18.95;75.73;97201.66;10335878;28;20079;-70
2022/05/28 18:26:43;;;;;;;17.17;7.40;;;;;;;18.48;77.89;97194.00;10336147;28;20071;-68
2022/05/28 18:31:42;;;;;;;16.50;7.35;;;;;;;18.52;77.84;97210.47;10334368;28;20074;-69
2022/05/28 18:36:42;;;;;;;12.32;6.10;;;;;;;18.44;78.04;97207.34;10334572;28;20045;-69
2022/05/28 18:41:41;;;;;;;15.88;5.63;;;;;;;18.42;78.21;97224.94;10334912;28;20061;-70
2022/05/28 18:46:40;;;;;;;16.17;6.13;;;;;;;18.52;78.09;97224.47;10335240;28;20555;-70
2022/05/28 18:51:40;;;;;;;15.52;6.63;;;;;;;18.54;78.02;97235.78;10333521;28;20508;-69
2022/05/28 18:56:45;;;;;;;16.17;6.65;;;;;;;18.66;78.29;97279.09;10333367;28;20111;-70
2022/05/28 19:01:44;;;;;;;11.77;5.38;;;;;;;18.61;79.04;97273.16;10318476;28;20065;-70
2022/05/28 19:06:55;;;;;;;9.48;5.18;;;;;;;18.68;78.53;97308.81;10293623;28;20073;-68
2022/05/28 19:11:59;;;;;;;13.80;5.60;;;;;;;18.67;78.61;97311.50;10293372;28;20476;-68
2022/05/28 19:16:58;;;;;;;12.25;6.10;;;;;;;18.69;78.49;97328.94;10292947;28;20076;-68
2022/05/28 19:21:57;;;;;;;11.02;5.60;;;;;;;18.68;78.46;97339.47;10310008;28;20082;-68
2022/05/28 19:27:09;;;;;;;13.43;6.97;;;;;;;18.81;78.41;97346.84;10333622;28;20080;-69
2022/05/28 19:32:14;;;;;;;14.77;8.15;;;;;;;18.86;79.63;97357.19;10331880;28;20151;-69
2022/05/28 19:37:13;;;;;;;15.32;8.98;;;;;;;18.63;81.32;97320.41;10310154;28;20066;-68
2022/05/28 19:42:14;;;;;;;15.82;9.48;;;;;;;18.56;82.57;97301.41;10292310;28;20080;-68
2022/05/28 19:47:16;;;;;;;15.38;9.75;;;;;;;18.36;84.79;97268.03;10307105;28;20135;-68
2022/05/28 19:52:17;;;;;;;15.38;8.60;;;;;;;17.66;86.71;97220.00;10291497;28;20061;-67
2022/05/28 19:57:16;;;;;;;16.75;8.52;;;;;;;17.80;87.48;97268.47;10291681;28;20076;-67
2022/05/28 20:02:16;;;;;;;12.02;7.10;;;;;;;17.63;88.11;97269.09;10293998;28;20524;-67
2022/05/28 20:07:15;;;;;;;14.13;8.40;;;;;;;17.54;88.85;97259.78;10290309;28;20068;-68
2022/05/28 20:12:16;;;;;;;15.05;9.48;;;;;;;17.35;89.54;97239.50;10290835;28;20033;-68
2022/05/28 20:17:15;;;;;;;15.00;9.38;;;;;;;17.39;91.05;97271.69;10305518;28;20085;-68
2022/05/28 20:22:15;;;;;;;26.27;12.48;;;;;;;17.43;91.27;97272.47;10310184;28;20065;-68
2022/05/28 20:27:14;;;;;;;22.58;11.68;;;;;;;17.48;92.44;97317.75;10331322;28;20488;-68
2022/05/28 20:32:13;;;;;;;17.52;9.50;;;;;;;17.29;93.50;97368.22;10331408;28;20064;-68
2022/05/28 20:37:21;;;;;;;16.63;9.02;;;;;;;16.97;94.55;97364.03;10330687;28;20072;-68
2022/05/28 20:42:20;;;;;;;13.60;7.93;;;;;;;16.98;95.07;97399.84;10330876;28;20480;-67
2022/05/28 20:47:21;;;;;;;16.55;8.05;;;;;;;16.77;95.43;97403.97;10330628;28;20073;-67
2022/05/28 20:52:20;;;;;;;18.80;9.35;;;;;;;16.87;95.64;97431.63;10330563;28;20515;-68
2022/05/28 20:57:20;;;;;;;18.10;8.82;;;;;;;16.88;95.32;97412.34;10330312;28;20069;-66
2022/05/28 21:02:25;;;;;;;20.55;9.18;;;;;;;16.97;95.36;97410.38;10329168;28;20084;-67
2022/05/28 21:07:25;;;;;;;18.48;9.23;;;;;;;17.06;96.02;97416.16;10328397;28;20561;-67
2022/05/28 21:12:24;;;;;;;17.00;9.85;;;;;;;17.03;96.51;97420.66;10313140;28;20121;-67
2022/05/28 21:17:23;;;;;;;16.17;9.32;;;;;;;16.91;96.69;97401.81;10294512;28;20049;-68
2022/05/28 21:22:25;;;;;;;20.30;9.65;;;;;;;16.87;96.88;97399.31;10317434;28;20065;-68
2022/05/28 21:32:44;;;;;;;15.02;8.07;;;;;;;17.02;96.35;97393.56;10338102;28;20516;-67
2022/05/28 21:37:43;;;;;;;13.93;8.88;;;;;;;17.04;96.20;97380.44;10337398;28;20073;-68
2022/05/28 21:42:42;;;;;;;17.98;9.65;;;;;;;16.87;96.24;97326.78;10337014;28;20388;-68
2022/05/28 21:47:44;;;;;;;14.85;8.27;;;;;;;16.78;96.52;97306.09;10337222;28;20080;-68
2022/05/28 21:52:44;;;;;;;17.63;8.95;;;;;;;16.86;96.66;97318.97;10335719;28;20065;-68
2022/05/28 21:57:43;;;;;;;14.25;9.25;;;;;;;16.81;96.64;97298.16;10336367;28;20076;-69
2022/05/28 22:02:42;;;;;;;16.85;8.18;;;;;;;16.79;96.65;97299.09;10336342;28;20069;-68
2022/05/28 22:07:41;;;;;;;16.10;9.30;;;;;;;16.68;96.76;97283.75;10336596;28;20029;-68
2022/05/28 22:12:44;;;;;;;15.15;8.40;;;;;;;16.75;96.80;97294.84;10338779;28;20065;-69
2022/05/28 22:17:43;;;;;;;16.30;9.02;;;;;;;16.67;96.43;97256.66;10339155;28;20520;-69
2022/05/28 22:22:42;;;;;;;19.85;10.13;;;;;;;16.84;96.31;97278.84;10337830;28;20496;-69
2022/05/28 22:27:41;;;;;;;15.15;8.77;;;;;;;16.83;96.27;97278.00;10338035;28;20072;-68
2022/05/28 22:32:41;;;;;;;20.70;8.73;;;;;;;16.92;96.02;97261.97;10337232;28;20048;-69
2022/05/28 22:37:40;;;;;;;15.73;7.75;;;;;;;16.77;96.02;97257.22;10338561;28;20478;-69
2022/05/28 22:42:39;;;;;;;14.85;7.97;;;;;;;16.80;95.93;97254.50;10338863;28;20072;-69
2022/05/28 22:47:44;;;;;;;15.60;7.57;;;;;;;16.87;95.40;97248.19;10336649;28;20046;-69
2022/05/28 22:52:43;;;;;;;18.67;7.60;;;;;;;16.76;94.49;97228.44;10338025;28;20361;-69
2022/05/28 22:57:42;;;;;;;16.58;7.00;;;;;;;16.79;94.87;97202.13;10337839;28;20065;-69
2022/05/28 23:02:41;;;;;;;16.80;7.53;;;;;;;16.58;95.32;97203.72;10336479;28;20043;-67
2022/05/28 23:07:41;;;;;;;19.50;8.35;;;;;;;16.47;95.82;97170.91;10337560;28;20489;-67
2022/05/28 23:12:41;;;;;;;17.05;7.10;;;;;;;16.24;97.30;97194.38;10333659;28;20069;-66
2022/05/28 23:17:40;;;;;;;13.00;5.55;;;;;;;16.26;94.50;97174.25;10333169;28;20095;-67
2022/05/28 23:27:56;;;;;;;13.65;5.75;;;;;;;16.61;92.91;97093.63;10333853;28;20496;-67
2022/05/28 23:32:56;;;;;;;13.13;6.28;;;;;;;16.71;92.46;97129.06;10333076;28;20491;-68
2022/05/28 23:37:55;;;;;;;16.98;7.20;;;;;;;16.73;92.77;97154.28;10332499;28;20087;-68
2022/05/28 23:42:54;;;;;;;14.77;7.55;;;;;;;16.58;93.14;97159.19;10332689;28;20043;-68
2022/05/28 23:47:53;;;;;;;;;;;;;;;16.64;93.33;97175.56;10332971;28;20112;-68